Parsonsfield, Maine
Current Conditions -  °F | °C
As of 12:54 AM on Tuesday 21 Oct 2014 (Local Time) from KIZG Reporting Station
Overcast Overcast  
Wind Chill: 40°   Ceiling: 8000
Heat Index: 40°   Visibility: 10mi
Dew Point: 35°   Wind: 0mph
Humidity: 83%   Direction: NA
Pressure: 30"   Gusts: NA
Location:  43.73°N, 70.93°W
Report Text: KIZG 210454Z AUTO 00000KT 10SM OVC080 04/02 A3000 RMK AO2 SLP162 T00440017 401330011
Loading
Personal Weather Stations






























Interactive Weather Map
Tropical Storm Tracking
New forecast layout! Learn more

10-Day Weather Forecast

Advertisements
Track Severe Weather on mobile